sensor_id;sensor_type;location;lat;lon;timestamp;temperature;humidity
69208;SHT31;70114;47.690;8.898;2023-11-22T00:01:11;7.46;86.66
69208;SHT31;70114;47.690;8.898;2023-11-22T00:03:37;7.52;85.94
69208;SHT31;70114;47.690;8.898;2023-11-22T00:06:03;7.52;86.27
69208;SHT31;70114;47.690;8.898;2023-11-22T00:08:28;7.55;86.27
69208;SHT31;70114;47.690;8.898;2023-11-22T00:10:54;7.48;86.47
69208;SHT31;70114;47.690;8.898;2023-11-22T00:13:20;7.55;86.45
69208;SHT31;70114;47.690;8.898;2023-11-22T00:15:45;7.57;86.46
69208;SHT31;70114;47.690;8.898;2023-11-22T00:18:11;7.61;86.51
69208;SHT31;70114;47.690;8.898;2023-11-22T00:20:36;7.65;86.24
69208;SHT31;70114;47.690;8.898;2023-11-22T00:23:02;7.65;86.24
69208;SHT31;70114;47.690;8.898;2023-11-22T00:25:28;7.69;86.07
69208;SHT31;70114;47.690;8.898;2023-11-22T00:27:54;7.57;86.44
69208;SHT31;70114;47.690;8.898;2023-11-22T00:30:20;7.59;86.14
69208;SHT31;70114;47.690;8.898;2023-11-22T00:32:45;7.50;86.33
69208;SHT31;70114;47.690;8.898;2023-11-22T00:35:11;7.44;86.50
69208;SHT31;70114;47.690;8.898;2023-11-22T00:37:37;7.40;86.05
69208;SHT31;70114;47.690;8.898;2023-11-22T00:40:03;7.46;85.90
69208;SHT31;70114;47.690;8.898;2023-11-22T00:42:38;7.43;86.00
69208;SHT31;70114;47.690;8.898;2023-11-22T00:45:06;7.48;85.82
69208;SHT31;70114;47.690;8.898;2023-11-22T00:47:34;7.54;86.02
69208;SHT31;70114;47.690;8.898;2023-11-22T00:50:00;7.47;85.97
69208;SHT31;70114;47.690;8.898;2023-11-22T00:52:26;7.48;85.83
69208;SHT31;70114;47.690;8.898;2023-11-22T00:54:51;7.43;85.79
69208;SHT31;70114;47.690;8.898;2023-11-22T00:57:17;7.50;85.86
69208;SHT31;70114;47.690;8.898;2023-11-22T00:59:42;7.50;85.98
69208;SHT31;70114;47.690;8.898;2023-11-22T01:02:08;7.50;86.30
69208;SHT31;70114;47.690;8.898;2023-11-22T01:04:34;7.54;86.57
69208;SHT31;70114;47.690;8.898;2023-11-22T01:07:02;7.57;86.45
69208;SHT31;70114;47.690;8.898;2023-11-22T01:09:29;7.58;86.46
69208;SHT31;70114;47.690;8.898;2023-11-22T01:11:55;7.52;86.30
69208;SHT31;70114;47.690;8.898;2023-11-22T01:14:21;7.58;85.92
69208;SHT31;70114;47.690;8.898;2023-11-22T01:16:47;7.62;86.05
69208;SHT31;70114;47.690;8.898;2023-11-22T01:19:12;7.50;86.01
69208;SHT31;70114;47.690;8.898;2023-11-22T01:21:37;7.43;86.31
69208;SHT31;70114;47.690;8.898;2023-11-22T01:24:03;7.52;86.48
69208;SHT31;70114;47.690;8.898;2023-11-22T01:26:29;7.43;86.22
69208;SHT31;70114;47.690;8.898;2023-11-22T01:28:55;7.34;86.43
69208;SHT31;70114;47.690;8.898;2023-11-22T01:31:21;7.32;86.67
69208;SHT31;70114;47.690;8.898;2023-11-22T01:33:49;7.34;86.48
69208;SHT31;70114;47.690;8.898;2023-11-22T01:36:15;7.17;86.86
69208;SHT31;70114;47.690;8.898;2023-11-22T01:38:41;7.27;86.58
69208;SHT31;70114;47.690;8.898;2023-11-22T01:41:06;7.37;86.46
69208;SHT31;70114;47.690;8.898;2023-11-22T01:43:32;7.40;86.32
69208;SHT31;70114;47.690;8.898;2023-11-22T01:45:57;7.43;85.94
69208;SHT31;70114;47.690;8.898;2023-11-22T01:48:23;7.46;86.07
69208;SHT31;70114;47.690;8.898;2023-11-22T01:50:49;7.52;86.01
69208;SHT31;70114;47.690;8.898;2023-11-22T01:53:15;7.51;85.89
69208;SHT31;70114;47.690;8.898;2023-11-22T01:55:44;7.50;86.38
69208;SHT31;70114;47.690;8.898;2023-11-22T01:58:10;7.52;86.59
69208;SHT31;70114;47.690;8.898;2023-11-22T02:00:43;7.47;86.54
69208;SHT31;70114;47.690;8.898;2023-11-22T02:03:10;7.37;86.60
69208;SHT31;70114;47.690;8.898;2023-11-22T02:05:40;7.46;86.57
69208;SHT31;70114;47.690;8.898;2023-11-22T02:08:07;7.47;86.52
69208;SHT31;70114;47.690;8.898;2023-11-22T02:10:33;7.48;86.50
69208;SHT31;70114;47.690;8.898;2023-11-22T02:12:58;7.48;86.74
69208;SHT31;70114;47.690;8.898;2023-11-22T02:15:24;7.41;86.87
69208;SHT31;70114;47.690;8.898;2023-11-22T02:17:49;7.37;86.98
69208;SHT31;70114;47.690;8.898;2023-11-22T02:20:15;7.38;86.75
69208;SHT31;70114;47.690;8.898;2023-11-22T02:22:47;7.26;88.09
69208;SHT31;70114;47.690;8.898;2023-11-22T02:25:12;7.16;87.12
69208;SHT31;70114;47.690;8.898;2023-11-22T02:27:39;7.23;87.12
69208;SHT31;70114;47.690;8.898;2023-11-22T02:30:05;6.99;87.42
69208;SHT31;70114;47.690;8.898;2023-11-22T02:32:31;7.02;87.79
69208;SHT31;70114;47.690;8.898;2023-11-22T02:34:57;7.06;87.61
69208;SHT31;70114;47.690;8.898;2023-11-22T02:37:22;6.89;88.33
69208;SHT31;70114;47.690;8.898;2023-11-22T02:40:18;6.90;88.68
69208;SHT31;70114;47.690;8.898;2023-11-22T02:42:51;7.14;88.13
69208;SHT31;70114;47.690;8.898;2023-11-22T02:45:19;7.09;87.67
69208;SHT31;70114;47.690;8.898;2023-11-22T02:47:45;7.06;88.26
69208;SHT31;70114;47.690;8.898;2023-11-22T02:50:12;7.19;87.97
69208;SHT31;70114;47.690;8.898;2023-11-22T02:52:38;6.97;88.52
69208;SHT31;70114;47.690;8.898;2023-11-22T02:55:04;7.11;88.09
69208;SHT31;70114;47.690;8.898;2023-11-22T02:57:30;7.11;88.30
69208;SHT31;70114;47.690;8.898;2023-11-22T02:59:56;7.26;87.73
69208;SHT31;70114;47.690;8.898;2023-11-22T03:02:22;7.19;87.30
69208;SHT31;70114;47.690;8.898;2023-11-22T03:04:47;7.23;87.85
69208;SHT31;70114;47.690;8.898;2023-11-22T03:07:13;7.03;88.12
69208;SHT31;70114;47.690;8.898;2023-11-22T03:09:39;7.03;88.59
69208;SHT31;70114;47.690;8.898;2023-11-22T03:12:06;7.04;88.36
69208;SHT31;70114;47.690;8.898;2023-11-22T03:14:31;7.21;88.06
69208;SHT31;70114;47.690;8.898;2023-11-22T03:16:57;7.16;88.11
69208;SHT31;70114;47.690;8.898;2023-11-22T03:19:22;6.99;88.74
69208;SHT31;70114;47.690;8.898;2023-11-22T03:21:49;6.85;88.68
69208;SHT31;70114;47.690;8.898;2023-11-22T03:24:15;7.03;88.33
69208;SHT31;70114;47.690;8.898;2023-11-22T03:26:43;6.79;88.86
69208;SHT31;70114;47.690;8.898;2023-11-22T03:29:08;6.89;88.11
69208;SHT31;70114;47.690;8.898;2023-11-22T03:31:33;6.72;88.48
69208;SHT31;70114;47.690;8.898;2023-11-22T03:33:59;6.64;88.78
69208;SHT31;70114;47.690;8.898;2023-11-22T03:36:24;6.68;88.81
69208;SHT31;70114;47.690;8.898;2023-11-22T03:38:50;6.72;89.20
69208;SHT31;70114;47.690;8.898;2023-11-22T03:41:16;6.49;89.56
69208;SHT31;70114;47.690;8.898;2023-11-22T03:43:46;6.61;89.69
69208;SHT31;70114;47.690;8.898;2023-11-22T03:46:12;6.51;89.93
69208;SHT31;70114;47.690;8.898;2023-11-22T03:48:37;6.61;89.95
69208;SHT31;70114;47.690;8.898;2023-11-22T03:51:03;6.68;89.87
69208;SHT31;70114;47.690;8.898;2023-11-22T03:53:28;6.75;89.96
69208;SHT31;70114;47.690;8.898;2023-11-22T03:55:54;6.81;89.44
69208;SHT31;70114;47.690;8.898;2023-11-22T03:58:19;6.86;89.23
69208;SHT31;70114;47.690;8.898;2023-11-22T04:00:45;6.76;89.60
69208;SHT31;70114;47.690;8.898;2023-11-22T04:03:10;6.72;89.42
69208;SHT31;70114;47.690;8.898;2023-11-22T04:05:35;6.67;88.92
69208;SHT31;70114;47.690;8.898;2023-11-22T04:08:01;6.78;89.06
69208;SHT31;70114;47.690;8.898;2023-11-22T04:10:26;6.96;88.42
69208;SHT31;70114;47.690;8.898;2023-11-22T04:12:52;6.85;88.09
69208;SHT31;70114;47.690;8.898;2023-11-22T04:15:17;6.92;88.32
69208;SHT31;70114;47.690;8.898;2023-11-22T04:17:43;7.04;87.92
69208;SHT31;70114;47.690;8.898;2023-11-22T04:20:09;7.13;87.69
69208;SHT31;70114;47.690;8.898;2023-11-22T04:22:42;7.20;87.33
69208;SHT31;70114;47.690;8.898;2023-11-22T04:25:10;7.28;87.02
69208;SHT31;70114;47.690;8.898;2023-11-22T04:27:38;7.23;86.73
69208;SHT31;70114;47.690;8.898;2023-11-22T04:30:08;7.20;87.33
69208;SHT31;70114;47.690;8.898;2023-11-22T04:32:40;6.97;87.81
69208;SHT31;70114;47.690;8.898;2023-11-22T04:35:07;7.20;87.52
69208;SHT31;70114;47.690;8.898;2023-11-22T04:37:32;7.02;88.19
69208;SHT31;70114;47.690;8.898;2023-11-22T04:39:59;7.10;88.20
69208;SHT31;70114;47.690;8.898;2023-11-22T04:42:26;7.02;88.37
69208;SHT31;70114;47.690;8.898;2023-11-22T04:44:53;6.96;88.32
69208;SHT31;70114;47.690;8.898;2023-11-22T04:47:19;6.83;89.08
69208;SHT31;70114;47.690;8.898;2023-11-22T04:49:44;6.86;89.21
69208;SHT31;70114;47.690;8.898;2023-11-22T04:52:10;6.96;89.17
69208;SHT31;70114;47.690;8.898;2023-11-22T04:54:35;7.06;88.84
69208;SHT31;70114;47.690;8.898;2023-11-22T04:57:00;7.13;88.68
69208;SHT31;70114;47.690;8.898;2023-11-22T04:59:26;7.02;88.84
69208;SHT31;70114;47.690;8.898;2023-11-22T05:01:51;7.14;88.51
69208;SHT31;70114;47.690;8.898;2023-11-22T05:04:17;7.04;89.18
69208;SHT31;70114;47.690;8.898;2023-11-22T05:06:43;7.00;89.26
69208;SHT31;70114;47.690;8.898;2023-11-22T05:09:09;6.61;90.17
69208;SHT31;70114;47.690;8.898;2023-11-22T05:11:36;6.69;90.31
69208;SHT31;70114;47.690;8.898;2023-11-22T05:14:01;6.54;90.71
69208;SHT31;70114;47.690;8.898;2023-11-22T05:16:27;6.58;90.95
69208;SHT31;70114;47.690;8.898;2023-11-22T05:18:52;6.64;91.03
69208;SHT31;70114;47.690;8.898;2023-11-22T05:21:18;6.69;90.58
69208;SHT31;70114;47.690;8.898;2023-11-22T05:23:43;6.75;90.51
69208;SHT31;70114;47.690;8.898;2023-11-22T05:26:09;6.95;89.85
69208;SHT31;70114;47.690;8.898;2023-11-22T05:28:34;6.89;89.64
69208;SHT31;70114;47.690;8.898;2023-11-22T05:31:00;6.86;90.00
69208;SHT31;70114;47.690;8.898;2023-11-22T05:33:25;6.93;89.61
69208;SHT31;70114;47.690;8.898;2023-11-22T05:35:51;6.86;89.70
69208;SHT31;70114;47.690;8.898;2023-11-22T05:38:16;6.81;89.97
69208;SHT31;70114;47.690;8.898;2023-11-22T05:40:42;6.58;90.81
69208;SHT31;70114;47.690;8.898;2023-11-22T05:43:08;6.89;89.92
69208;SHT31;70114;47.690;8.898;2023-11-22T05:45:34;6.78;90.27
69208;SHT31;70114;47.690;8.898;2023-11-22T05:48:00;6.56;90.93
69208;SHT31;70114;47.690;8.898;2023-11-22T05:50:25;6.44;90.09
69208;SHT31;70114;47.690;8.898;2023-11-22T05:52:51;6.38;90.14
69208;SHT31;70114;47.690;8.898;2023-11-22T05:55:17;6.24;91.66
69208;SHT31;70114;47.690;8.898;2023-11-22T05:57:43;6.09;91.04
69208;SHT31;70114;47.690;8.898;2023-11-22T06:00:09;6.20;90.28
69208;SHT31;70114;47.690;8.898;2023-11-22T06:02:35;6.24;89.82
69208;SHT31;70114;47.690;8.898;2023-11-22T06:05:02;6.28;90.41
69208;SHT31;70114;47.690;8.898;2023-11-22T06:07:28;6.06;91.04
69208;SHT31;70114;47.690;8.898;2023-11-22T06:09:54;5.90;88.76
69208;SHT31;70114;47.690;8.898;2023-11-22T06:12:19;5.80;89.07
69208;SHT31;70114;47.690;8.898;2023-11-22T06:14:46;5.87;89.08
69208;SHT31;70114;47.690;8.898;2023-11-22T06:17:12;5.66;88.84
69208;SHT31;70114;47.690;8.898;2023-11-22T06:19:37;5.90;88.73
69208;SHT31;70114;47.690;8.898;2023-11-22T06:22:03;6.02;88.36
69208;SHT31;70114;47.690;8.898;2023-11-22T06:24:29;5.73;87.86
69208;SHT31;70114;47.690;8.898;2023-11-22T06:26:54;5.68;88.07
69208;SHT31;70114;47.690;8.898;2023-11-22T06:29:20;5.52;88.91
69208;SHT31;70114;47.690;8.898;2023-11-22T06:31:45;5.62;88.92
69208;SHT31;70114;47.690;8.898;2023-11-22T06:34:11;5.69;88.51
69208;SHT31;70114;47.690;8.898;2023-11-22T06:36:37;5.68;88.74
69208;SHT31;70114;47.690;8.898;2023-11-22T06:39:03;5.73;87.95
69208;SHT31;70114;47.690;8.898;2023-11-22T06:41:29;5.42;87.99
69208;SHT31;70114;47.690;8.898;2023-11-22T06:43:55;5.66;88.13
69208;SHT31;70114;47.690;8.898;2023-11-22T06:46:20;5.54;88.36
69208;SHT31;70114;47.690;8.898;2023-11-22T06:48:48;5.54;88.08
69208;SHT31;70114;47.690;8.898;2023-11-22T06:51:14;5.44;87.61
69208;SHT31;70114;47.690;8.898;2023-11-22T06:53:40;5.18;88.03
69208;SHT31;70114;47.690;8.898;2023-11-22T06:56:06;5.21;88.59
69208;SHT31;70114;47.690;8.898;2023-11-22T06:58:31;5.48;88.34
69208;SHT31;70114;47.690;8.898;2023-11-22T07:01:00;5.45;88.06
69208;SHT31;70114;47.690;8.898;2023-11-22T07:03:26;5.66;87.91
69208;SHT31;70114;47.690;8.898;2023-11-22T07:05:51;5.44;87.52
69208;SHT31;70114;47.690;8.898;2023-11-22T07:08:17;5.14;88.73
69208;SHT31;70114;47.690;8.898;2023-11-22T07:10:45;5.39;87.83
69208;SHT31;70114;47.690;8.898;2023-11-22T07:13:21;5.26;88.18
69208;SHT31;70114;47.690;8.898;2023-11-22T07:15:47;5.11;88.91
69208;SHT31;70114;47.690;8.898;2023-11-22T07:18:13;5.18;88.43
69208;SHT31;70114;47.690;8.898;2023-11-22T07:20:41;5.18;88.74
69208;SHT31;70114;47.690;8.898;2023-11-22T07:23:07;5.26;88.64
69208;SHT31;70114;47.690;8.898;2023-11-22T07:25:38;5.17;89.22
69208;SHT31;70114;47.690;8.898;2023-11-22T07:28:04;5.01;88.55
69208;SHT31;70114;47.690;8.898;2023-11-22T07:30:29;4.94;88.69
69208;SHT31;70114;47.690;8.898;2023-11-22T07:32:56;5.14;88.65
69208;SHT31;70114;47.690;8.898;2023-11-22T07:35:21;4.97;87.76
69208;SHT31;70114;47.690;8.898;2023-11-22T07:37:47;4.83;87.80
69208;SHT31;70114;47.690;8.898;2023-11-22T07:40:14;4.72;88.79
69208;SHT31;70114;47.690;8.898;2023-11-22T07:42:40;4.69;88.59
69208;SHT31;70114;47.690;8.898;2023-11-22T07:45:06;4.84;88.80
69208;SHT31;70114;47.690;8.898;2023-11-22T07:47:32;4.93;88.26
69208;SHT31;70114;47.690;8.898;2023-11-22T07:49:57;5.08;87.55
69208;SHT31;70114;47.690;8.898;2023-11-22T07:52:24;4.87;87.48
69208;SHT31;70114;47.690;8.898;2023-11-22T07:54:56;4.96;87.30
69208;SHT31;70114;47.690;8.898;2023-11-22T07:57:22;4.81;87.28
69208;SHT31;70114;47.690;8.898;2023-11-22T07:59:48;4.93;87.99
69208;SHT31;70114;47.690;8.898;2023-11-22T08:02:13;5.13;87.52
69208;SHT31;70114;47.690;8.898;2023-11-22T08:04:39;5.13;87.11
69208;SHT31;70114;47.690;8.898;2023-11-22T08:07:05;5.14;86.27
69208;SHT31;70114;47.690;8.898;2023-11-22T08:09:31;4.91;86.32
69208;SHT31;70114;47.690;8.898;2023-11-22T08:11:58;4.79;86.80
69208;SHT31;70114;47.690;8.898;2023-11-22T08:14:24;4.77;86.25
69208;SHT31;70114;47.690;8.898;2023-11-22T08:16:53;4.91;86.76
69208;SHT31;70114;47.690;8.898;2023-11-22T08:19:18;4.69;86.29
69208;SHT31;70114;47.690;8.898;2023-11-22T08:21:43;4.97;86.44
69208;SHT31;70114;47.690;8.898;2023-11-22T08:24:09;4.72;84.78
69208;SHT31;70114;47.690;8.898;2023-11-22T08:26:34;4.86;85.50
69208;SHT31;70114;47.690;8.898;2023-11-22T08:29:00;4.77;84.64
69208;SHT31;70114;47.690;8.898;2023-11-22T08:31:26;4.55;85.18
69208;SHT31;70114;47.690;8.898;2023-11-22T08:33:52;4.45;85.02
69208;SHT31;70114;47.690;8.898;2023-11-22T08:36:17;4.28;85.28
69208;SHT31;70114;47.690;8.898;2023-11-22T08:38:43;4.52;85.70
69208;SHT31;70114;47.690;8.898;2023-11-22T08:41:10;4.45;84.74
69208;SHT31;70114;47.690;8.898;2023-11-22T08:43:38;4.58;85.42
69208;SHT31;70114;47.690;8.898;2023-11-22T08:46:04;4.32;84.50
69208;SHT31;70114;47.690;8.898;2023-11-22T08:48:30;4.25;84.95
69208;SHT31;70114;47.690;8.898;2023-11-22T08:50:58;4.56;85.51
69208;SHT31;70114;47.690;8.898;2023-11-22T08:53:24;4.77;85.39
69208;SHT31;70114;47.690;8.898;2023-11-22T08:55:50;4.44;85.20
69208;SHT31;70114;47.690;8.898;2023-11-22T08:58:15;4.80;85.13
69208;SHT31;70114;47.690;8.898;2023-11-22T09:00:41;4.61;84.50
69208;SHT31;70114;47.690;8.898;2023-11-22T09:03:08;4.59;84.32
69208;SHT31;70114;47.690;8.898;2023-11-22T09:05:33;4.49;84.92
69208;SHT31;70114;47.690;8.898;2023-11-22T09:07:59;4.44;84.91
69208;SHT31;70114;47.690;8.898;2023-11-22T09:10:24;4.28;84.36
69208;SHT31;70114;47.690;8.898;2023-11-22T09:12:50;4.11;85.03
69208;SHT31;70114;47.690;8.898;2023-11-22T09:15:16;4.17;84.39
69208;SHT31;70114;47.690;8.898;2023-11-22T09:17:44;3.94;85.00
69208;SHT31;70114;47.690;8.898;2023-11-22T09:20:12;3.86;83.93
69208;SHT31;70114;47.690;8.898;2023-11-22T09:22:50;3.65;84.29
69208;SHT31;70114;47.690;8.898;2023-11-22T09:25:23;3.83;85.14
69208;SHT31;70114;47.690;8.898;2023-11-22T09:27:51;3.59;84.29
69208;SHT31;70114;47.690;8.898;2023-11-22T09:30:19;3.73;84.21
69208;SHT31;70114;47.690;8.898;2023-11-22T09:33:07;3.95;84.49
69208;SHT31;70114;47.690;8.898;2023-11-22T09:35:33;3.79;84.49
69208;SHT31;70114;47.690;8.898;2023-11-22T09:38:03;3.56;85.20
69208;SHT31;70114;47.690;8.898;2023-11-22T09:40:29;3.56;86.04
69208;SHT31;70114;47.690;8.898;2023-11-22T09:42:59;3.80;86.72
69208;SHT31;70114;47.690;8.898;2023-11-22T09:45:27;3.98;87.43
69208;SHT31;70114;47.690;8.898;2023-11-22T09:47:54;3.93;87.15
69208;SHT31;70114;47.690;8.898;2023-11-22T09:50:34;3.95;86.40
69208;SHT31;70114;47.690;8.898;2023-11-22T09:53:02;4.01;84.63
69208;SHT31;70114;47.690;8.898;2023-11-22T09:55:31;3.84;85.39
69208;SHT31;70114;47.690;8.898;2023-11-22T09:57:58;3.87;84.66
69208;SHT31;70114;47.690;8.898;2023-11-22T10:00:28;4.21;85.16
69208;SHT31;70114;47.690;8.898;2023-11-22T10:02:55;4.34;84.78
69208;SHT31;70114;47.690;8.898;2023-11-22T10:05:21;4.40;84.76
69208;SHT31;70114;47.690;8.898;2023-11-22T10:07:47;4.52;84.17
69208;SHT31;70114;47.690;8.898;2023-11-22T10:10:16;4.00;83.70
69208;SHT31;70114;47.690;8.898;2023-11-22T10:12:44;4.38;84.10
69208;SHT31;70114;47.690;8.898;2023-11-22T10:15:16;4.08;83.51
69208;SHT31;70114;47.690;8.898;2023-11-22T10:20:24;4.40;83.05
69208;SHT31;70114;47.690;8.898;2023-11-22T10:22:52;4.59;83.74
69208;SHT31;70114;47.690;8.898;2023-11-22T10:25:17;4.24;83.09
69208;SHT31;70114;47.690;8.898;2023-11-22T10:27:46;4.30;84.00
69208;SHT31;70114;47.690;8.898;2023-11-22T10:30:12;4.46;84.28
69208;SHT31;70114;47.690;8.898;2023-11-22T10:32:40;4.49;84.12
69208;SHT31;70114;47.690;8.898;2023-11-22T10:35:06;4.34;83.43
69208;SHT31;70114;47.690;8.898;2023-11-22T10:37:33;4.65;83.59
69208;SHT31;70114;47.690;8.898;2023-11-22T10:39:59;4.73;83.09
69208;SHT31;70114;47.690;8.898;2023-11-22T10:42:25;4.42;82.06
69208;SHT31;70114;47.690;8.898;2023-11-22T10:44:55;4.41;83.25
69208;SHT31;70114;47.690;8.898;2023-11-22T10:47:20;4.55;83.31
69208;SHT31;70114;47.690;8.898;2023-11-22T10:49:46;4.63;83.36
69208;SHT31;70114;47.690;8.898;2023-11-22T10:52:13;4.25;83.02
69208;SHT31;70114;47.690;8.898;2023-11-22T10:54:44;4.40;82.83
69208;SHT31;70114;47.690;8.898;2023-11-22T10:57:19;4.40;84.39
69208;SHT31;70114;47.690;8.898;2023-11-22T10:59:53;4.11;82.73
69208;SHT31;70114;47.690;8.898;2023-11-22T11:02:21;4.41;84.29
69208;SHT31;70114;47.690;8.898;2023-11-22T11:04:59;4.35;84.19
69208;SHT31;70114;47.690;8.898;2023-11-22T11:07:25;4.27;84.00
69208;SHT31;70114;47.690;8.898;2023-11-22T11:09:53;4.10;84.71
69208;SHT31;70114;47.690;8.898;2023-11-22T11:12:20;3.90;83.88
69208;SHT31;70114;47.690;8.898;2023-11-22T11:14:46;4.10;85.42
69208;SHT31;70114;47.690;8.898;2023-11-22T11:17:13;4.32;84.72
69208;SHT31;70114;47.690;8.898;2023-11-22T11:19:40;4.32;84.67
69208;SHT31;70114;47.690;8.898;2023-11-22T11:22:10;4.07;85.33
69208;SHT31;70114;47.690;8.898;2023-11-22T11:24:40;4.28;85.70
69208;SHT31;70114;47.690;8.898;2023-11-22T11:27:10;4.49;84.62
69208;SHT31;70114;47.690;8.898;2023-11-22T11:29:36;4.49;82.89
69208;SHT31;70114;47.690;8.898;2023-11-22T11:32:10;4.46;83.44
69208;SHT31;70114;47.690;8.898;2023-11-22T11:34:47;4.25;83.65
69208;SHT31;70114;47.690;8.898;2023-11-22T11:37:14;4.42;84.41
69208;SHT31;70114;47.690;8.898;2023-11-22T11:39:40;4.20;83.71
69208;SHT31;70114;47.690;8.898;2023-11-22T11:42:12;4.34;83.13
69208;SHT31;70114;47.690;8.898;2023-11-22T11:47:24;4.59;83.50
69208;SHT31;70114;47.690;8.898;2023-11-22T11:49:52;4.69;82.81
69208;SHT31;70114;47.690;8.898;2023-11-22T11:52:20;4.80;82.68
69208;SHT31;70114;47.690;8.898;2023-11-22T11:54:45;4.58;82.17
69208;SHT31;70114;47.690;8.898;2023-11-22T11:57:11;4.56;81.39
69208;SHT31;70114;47.690;8.898;2023-11-22T11:59:36;4.86;82.29
69208;SHT31;70114;47.690;8.898;2023-11-22T12:02:05;4.46;81.34
69208;SHT31;70114;47.690;8.898;2023-11-22T12:04:31;4.63;81.69
69208;SHT31;70114;47.690;8.898;2023-11-22T12:06:58;4.72;81.62
69208;SHT31;70114;47.690;8.898;2023-11-22T12:09:27;4.91;81.85
69208;SHT31;70114;47.690;8.898;2023-11-22T12:11:55;4.99;81.22
69208;SHT31;70114;47.690;8.898;2023-11-22T12:14:23;4.96;81.18
69208;SHT31;70114;47.690;8.898;2023-11-22T12:16:50;5.07;80.85
69208;SHT31;70114;47.690;8.898;2023-11-22T12:19:28;5.28;81.48
69208;SHT31;70114;47.690;8.898;2023-11-22T12:21:53;5.35;81.45
69208;SHT31;70114;47.690;8.898;2023-11-22T12:24:19;4.99;79.65
69208;SHT31;70114;47.690;8.898;2023-11-22T12:26:48;4.94;81.95
69208;SHT31;70114;47.690;8.898;2023-11-22T12:29:15;4.68;80.56
69208;SHT31;70114;47.690;8.898;2023-11-22T12:31:50;4.37;80.34
69208;SHT31;70114;47.690;8.898;2023-11-22T12:34:18;4.72;81.06
69208;SHT31;70114;47.690;8.898;2023-11-22T12:36:45;4.65;81.58
69208;SHT31;70114;47.690;8.898;2023-11-22T12:39:12;4.49;80.44
69208;SHT31;70114;47.690;8.898;2023-11-22T12:41:45;4.41;81.03
69208;SHT31;70114;47.690;8.898;2023-11-22T12:44:11;4.44;81.28
69208;SHT31;70114;47.690;8.898;2023-11-22T12:46:51;4.49;81.43
69208;SHT31;70114;47.690;8.898;2023-11-22T12:49:29;4.68;81.53
69208;SHT31;70114;47.690;8.898;2023-11-22T12:51:55;4.22;81.40
69208;SHT31;70114;47.690;8.898;2023-11-22T12:54:22;4.25;81.07
69208;SHT31;70114;47.690;8.898;2023-11-22T12:56:52;4.18;82.47
69208;SHT31;70114;47.690;8.898;2023-11-22T12:59:23;3.94;82.16
69208;SHT31;70114;47.690;8.898;2023-11-22T13:01:50;4.05;82.37
69208;SHT31;70114;47.690;8.898;2023-11-22T13:04:15;3.82;81.69
69208;SHT31;70114;47.690;8.898;2023-11-22T13:06:42;4.15;81.95
69208;SHT31;70114;47.690;8.898;2023-11-22T13:09:08;4.20;81.49
69208;SHT31;70114;47.690;8.898;2023-11-22T13:11:42;4.15;82.32
69208;SHT31;70114;47.690;8.898;2023-11-22T13:14:13;4.24;81.11
69208;SHT31;70114;47.690;8.898;2023-11-22T13:16:41;4.40;81.33
69208;SHT31;70114;47.690;8.898;2023-11-22T13:19:08;4.05;80.80
69208;SHT31;70114;47.690;8.898;2023-11-22T13:21:34;4.40;81.70
69208;SHT31;70114;47.690;8.898;2023-11-22T13:23:59;4.40;81.81
69208;SHT31;70114;47.690;8.898;2023-11-22T13:26:26;4.38;81.65
69208;SHT31;70114;47.690;8.898;2023-11-22T13:28:51;4.30;81.97
69208;SHT31;70114;47.690;8.898;2023-11-22T13:31:19;4.10;82.07
69208;SHT31;70114;47.690;8.898;2023-11-22T13:33:46;4.14;82.46
69208;SHT31;70114;47.690;8.898;2023-11-22T13:36:12;4.01;81.31
69208;SHT31;70114;47.690;8.898;2023-11-22T13:38:42;3.72;81.73
69208;SHT31;70114;47.690;8.898;2023-11-22T13:41:08;4.01;82.01
69208;SHT31;70114;47.690;8.898;2023-11-22T13:43:34;4.05;82.02
69208;SHT31;70114;47.690;8.898;2023-11-22T13:46:00;3.69;82.31
69208;SHT31;70114;47.690;8.898;2023-11-22T13:48:25;4.01;82.06
69208;SHT31;70114;47.690;8.898;2023-11-22T13:50:51;3.82;81.97
69208;SHT31;70114;47.690;8.898;2023-11-22T13:53:16;3.82;82.28
69208;SHT31;70114;47.690;8.898;2023-11-22T13:55:46;3.79;81.84
69208;SHT31;70114;47.690;8.898;2023-11-22T13:58:11;3.52;82.79
69208;SHT31;70114;47.690;8.898;2023-11-22T14:00:37;3.69;83.18
69208;SHT31;70114;47.690;8.898;2023-11-22T14:03:04;3.79;82.58
69208;SHT31;70114;47.690;8.898;2023-11-22T14:05:32;3.52;82.22
69208;SHT31;70114;47.690;8.898;2023-11-22T14:07:58;3.65;83.75
69208;SHT31;70114;47.690;8.898;2023-11-22T14:10:24;3.38;84.26
69208;SHT31;70114;47.690;8.898;2023-11-22T14:12:50;3.32;85.38
69208;SHT31;70114;47.690;8.898;2023-11-22T14:15:16;3.45;85.41
69208;SHT31;70114;47.690;8.898;2023-11-22T14:17:42;3.49;84.98
69208;SHT31;70114;47.690;8.898;2023-11-22T14:20:11;3.52;84.68
69208;SHT31;70114;47.690;8.898;2023-11-22T14:22:37;3.59;84.48
69208;SHT31;70114;47.690;8.898;2023-11-22T14:25:03;3.63;84.09
69208;SHT31;70114;47.690;8.898;2023-11-22T14:27:33;3.42;84.43
69208;SHT31;70114;47.690;8.898;2023-11-22T14:29:59;3.63;84.75
69208;SHT31;70114;47.690;8.898;2023-11-22T14:32:24;3.66;84.32
69208;SHT31;70114;47.690;8.898;2023-11-22T14:34:49;3.40;85.56
69208;SHT31;70114;47.690;8.898;2023-11-22T14:37:16;3.34;84.87
69208;SHT31;70114;47.690;8.898;2023-11-22T14:39:42;3.45;85.06
69208;SHT31;70114;47.690;8.898;2023-11-22T14:42:07;3.24;86.47
69208;SHT31;70114;47.690;8.898;2023-11-22T14:44:34;3.11;85.79
69208;SHT31;70114;47.690;8.898;2023-11-22T14:47:03;3.22;86.13
69208;SHT31;70114;47.690;8.898;2023-11-22T14:49:38;3.18;85.74
69208;SHT31;70114;47.690;8.898;2023-11-22T14:52:04;3.19;85.47
69208;SHT31;70114;47.690;8.898;2023-11-22T14:54:29;3.12;86.18
69208;SHT31;70114;47.690;8.898;2023-11-22T14:56:55;3.36;84.96
69208;SHT31;70114;47.690;8.898;2023-11-22T14:59:25;3.01;85.37
69208;SHT31;70114;47.690;8.898;2023-11-22T15:01:51;3.00;85.85
69208;SHT31;70114;47.690;8.898;2023-11-22T15:04:16;3.08;86.21
69208;SHT31;70114;47.690;8.898;2023-11-22T15:06:42;2.91;86.12
69208;SHT31;70114;47.690;8.898;2023-11-22T15:09:10;3.24;86.36
69208;SHT31;70114;47.690;8.898;2023-11-22T15:11:37;3.17;85.57
69208;SHT31;70114;47.690;8.898;2023-11-22T15:14:04;3.19;85.65
69208;SHT31;70114;47.690;8.898;2023-11-22T15:16:29;3.18;85.44
69208;SHT31;70114;47.690;8.898;2023-11-22T15:18:56;3.07;86.03
69208;SHT31;70114;47.690;8.898;2023-11-22T15:21:22;2.91;86.23
69208;SHT31;70114;47.690;8.898;2023-11-22T15:23:47;2.83;86.49
69208;SHT31;70114;47.690;8.898;2023-11-22T15:26:13;2.96;86.50
69208;SHT31;70114;47.690;8.898;2023-11-22T15:28:39;3.03;86.03
69208;SHT31;70114;47.690;8.898;2023-11-22T15:31:04;3.14;86.12
69208;SHT31;70114;47.690;8.898;2023-11-22T15:33:30;3.19;86.06
69208;SHT31;70114;47.690;8.898;2023-11-22T15:35:55;3.32;85.86
69208;SHT31;70114;47.690;8.898;2023-11-22T15:38:21;3.31;85.29
69208;SHT31;70114;47.690;8.898;2023-11-22T15:40:50;3.28;85.11
69208;SHT31;70114;47.690;8.898;2023-11-22T15:43:16;3.28;85.26
69208;SHT31;70114;47.690;8.898;2023-11-22T15:45:41;3.46;85.28
69208;SHT31;70114;47.690;8.898;2023-11-22T15:48:08;3.59;84.48